createdAt,value
2018-08-16T00:02:25.251Z,14.00
2018-08-16T00:04:54.481Z,13.94
2018-08-16T00:07:23.117Z,13.94
2018-08-16T00:09:51.927Z,14.02
2018-08-16T00:12:20.835Z,13.99
2018-08-16T00:14:49.436Z,13.93
2018-08-16T00:17:18.255Z,13.92
2018-08-16T00:19:47.079Z,13.88
2018-08-16T00:22:15.837Z,13.78
2018-08-16T00:24:45.526Z,13.80
2018-08-16T00:27:14.655Z,13.71
2018-08-16T00:29:44.031Z,13.66
2018-08-16T00:32:12.722Z,13.63
2018-08-16T00:34:41.375Z,13.58
2018-08-16T00:37:10.435Z,13.57
2018-08-16T00:39:39.948Z,13.55
2018-08-16T00:42:08.621Z,13.47
2018-08-16T00:44:37.786Z,13.55
2018-08-16T00:47:08.421Z,13.54
2018-08-16T00:49:38.683Z,13.53
2018-08-16T00:52:07.502Z,13.50
2018-08-16T00:54:36.215Z,13.49
2018-08-16T00:57:05.613Z,13.42
2018-08-16T00:59:34.452Z,13.37
2018-08-16T01:02:03.112Z,13.33
2018-08-16T01:04:32.700Z,13.33
2018-08-16T01:07:01.273Z,13.37
2018-08-16T01:09:30.452Z,13.32
2018-08-16T01:11:59.232Z,13.32
2018-08-16T01:14:27.894Z,13.25
2018-08-16T01:16:57.296Z,13.26
2018-08-16T01:19:26.190Z,13.28
2018-08-16T01:21:55.181Z,13.19
2018-08-16T01:24:24.688Z,13.21
2018-08-16T01:26:54.171Z,13.18
2018-08-16T01:29:23.113Z,13.15
2018-08-16T01:31:52.672Z,13.12
2018-08-16T01:34:21.602Z,13.07
2018-08-16T01:36:50.202Z,13.02
2018-08-16T01:39:18.793Z,13.02
2018-08-16T01:41:47.416Z,12.98
2018-08-16T01:44:16.156Z,12.90
2018-08-16T01:46:45.456Z,12.94
2018-08-16T01:49:37.656Z,12.90
2018-08-16T01:52:06.592Z,12.91
2018-08-16T01:54:35.472Z,12.91
2018-08-16T01:57:04.397Z,12.79
2018-08-16T01:59:33.553Z,12.75
2018-08-16T02:02:02.741Z,12.67
2018-08-16T02:04:32.304Z,12.67
2018-08-16T02:07:00.911Z,12.68
2018-08-16T02:09:30.187Z,12.70
2018-08-16T02:11:59.176Z,12.71
2018-08-16T02:14:28.056Z,12.67
2018-08-16T02:16:57.905Z,12.66
2018-08-16T02:19:26.497Z,12.66
2018-08-16T02:21:55.441Z,12.59
2018-08-16T02:24:24.656Z,12.53
2018-08-16T02:26:53.502Z,12.51
2018-08-16T02:29:22.156Z,12.57
2018-08-16T02:31:51.861Z,12.44
2018-08-16T02:34:20.523Z,12.45
2018-08-16T02:36:49.137Z,12.44
2018-08-16T02:39:17.931Z,12.37
2018-08-16T02:41:47.332Z,12.40
2018-08-16T02:44:16.373Z,12.37
2018-08-16T02:46:45.692Z,12.34
2018-08-16T02:49:14.456Z,12.33
2018-08-16T02:51:43.123Z,12.33
2018-08-16T02:54:12.518Z,12.30
2018-08-16T02:56:41.202Z,12.26
2018-08-16T02:59:09.734Z,12.26
2018-08-16T03:01:38.391Z,12.25
2018-08-16T03:04:07.125Z,12.22
2018-08-16T03:06:36.360Z,12.18
2018-08-16T03:09:07.871Z,12.19
2018-08-16T03:11:36.563Z,12.16
2018-08-16T03:14:06.117Z,12.09
2018-08-16T03:16:35.652Z,12.12
2018-08-16T03:19:04.803Z,12.07
2018-08-16T03:21:33.628Z,12.08
2018-08-16T03:24:03.228Z,12.02
2018-08-16T03:26:31.911Z,11.91
2018-08-16T03:29:00.524Z,11.95
2018-08-16T03:31:29.137Z,11.87
2018-08-16T03:33:58.536Z,11.94
2018-08-16T03:36:27.977Z,11.88
2018-08-16T03:38:58.330Z,11.91
2018-08-16T03:41:27.670Z,11.88
2018-08-16T03:43:56.352Z,11.82
2018-08-16T03:46:25.350Z,11.83
2018-08-16T03:48:54.181Z,11.83
2018-08-16T03:51:23.651Z,11.77
2018-08-16T03:53:52.602Z,11.75
2018-08-16T03:56:21.478Z,11.69
2018-08-16T03:58:51.159Z,11.66
2018-08-16T04:01:19.966Z,11.66
2018-08-16T04:03:48.712Z,11.69
2018-08-16T04:06:17.431Z,11.67
2018-08-16T04:08:47.136Z,11.65
2018-08-16T04:11:16.246Z,11.65
2018-08-16T04:13:45.996Z,11.67
2018-08-16T04:16:14.809Z,11.66
2018-08-16T04:18:43.482Z,11.66
2018-08-16T04:21:12.150Z,11.64
2018-08-16T04:23:40.990Z,11.60
2018-08-16T04:26:09.658Z,11.50
2018-08-16T04:28:38.811Z,11.55
2018-08-16T04:31:09.140Z,11.59
2018-08-16T04:33:38.288Z,11.62
2018-08-16T04:36:07.926Z,11.61
2018-08-16T04:38:36.692Z,11.63
2018-08-16T04:41:06.059Z,11.63
2018-08-16T04:43:35.108Z,11.68
2018-08-16T04:46:04.082Z,11.69
2018-08-16T04:48:33.717Z,11.76
2018-08-16T04:51:03.002Z,11.83
2018-08-16T04:53:31.631Z,11.90
2018-08-16T04:56:00.826Z,12.10
2018-08-16T04:58:29.581Z,12.33
2018-08-16T05:00:59.092Z,12.57
2018-08-16T05:03:28.946Z,12.86
2018-08-16T05:05:57.828Z,13.21
2018-08-16T05:08:26.660Z,13.55
2018-08-16T05:10:55.562Z,13.80
2018-08-16T05:13:24.456Z,13.96
2018-08-16T05:15:53.650Z,14.27
2018-08-16T05:18:22.356Z,14.58
2018-08-16T05:20:51.746Z,14.76
2018-08-16T05:23:20.743Z,14.66
2018-08-16T05:25:49.628Z,14.47
2018-08-16T05:28:19.188Z,14.30
2018-08-16T05:30:48.426Z,14.18
2018-08-16T05:33:17.847Z,14.03
2018-08-16T05:35:46.803Z,14.06
2018-08-16T05:38:16.058Z,14.07
2018-08-16T05:40:45.451Z,14.10
2018-08-16T05:43:14.405Z,14.26
2018-08-16T05:45:43.107Z,14.54
2018-08-16T05:48:12.149Z,15.25
2018-08-16T05:50:41.150Z,15.95
2018-08-16T05:53:10.209Z,16.79
2018-08-16T05:55:38.821Z,17.31
2018-08-16T05:58:07.909Z,17.43
2018-08-16T06:00:37.336Z,17.75
2018-08-16T06:03:06.337Z,17.93
2018-08-16T06:05:35.186Z,18.91
2018-08-16T06:08:03.957Z,19.51
2018-08-16T06:10:33.712Z,19.99
2018-08-16T06:13:02.913Z,20.48
2018-08-16T06:15:31.620Z,20.71
2018-08-16T06:18:00.688Z,21.04
2018-08-16T06:20:29.433Z,21.23
2018-08-16T06:22:58.143Z,21.62
2018-08-16T06:25:27.066Z,22.17
2018-08-16T06:27:55.706Z,21.66
2018-08-16T06:30:24.559Z,22.09
2018-08-16T06:32:54.288Z,23.01
2018-08-16T06:35:23.188Z,23.56
2018-08-16T06:37:52.008Z,23.74
2018-08-16T06:40:20.703Z,23.68
2018-08-16T06:42:50.653Z,23.80
2018-08-16T06:45:19.322Z,24.33
2018-08-16T06:47:48.431Z,24.25
2018-08-16T06:50:17.298Z,24.08
2018-08-16T06:52:45.948Z,24.73
2018-08-16T06:55:15.085Z,24.77
2018-08-16T06:57:43.937Z,25.05
2018-08-16T07:00:12.700Z,25.75
2018-08-16T07:02:41.464Z,26.07
2018-08-16T07:05:11.030Z,26.36
2018-08-16T07:07:39.864Z,26.64
2018-08-16T07:10:10.405Z,27.19
2018-08-16T07:12:39.103Z,27.50
2018-08-16T07:15:11.504Z,28.17
2018-08-16T07:17:40.418Z,27.92
2018-08-16T07:20:09.704Z,28.39
2018-08-16T07:22:38.480Z,28.01
2018-08-16T07:25:08.304Z,28.38
2018-08-16T07:27:37.090Z,29.52
2018-08-16T07:30:07.918Z,29.48
2018-08-16T07:32:36.469Z,29.40
2018-08-16T07:35:05.481Z,29.64
2018-08-16T07:37:35.053Z,29.86
2018-08-16T07:40:04.961Z,30.66
2018-08-16T07:42:33.651Z,31.08
2018-08-16T07:45:02.548Z,31.42
2018-08-16T07:47:32.260Z,31.25
2018-08-16T07:50:01.012Z,31.98
2018-08-16T07:52:30.778Z,32.67
2018-08-16T07:55:00.480Z,32.02
2018-08-16T07:57:29.704Z,33.14
2018-08-16T07:59:58.781Z,32.82
2018-08-16T08:02:28.592Z,33.67
2018-08-16T08:04:57.215Z,34.17
2018-08-16T08:07:26.673Z,32.75
2018-08-16T08:09:56.018Z,33.25
2018-08-16T08:12:24.930Z,34.71
2018-08-16T08:14:54.450Z,33.94
2018-08-16T08:17:24.263Z,34.01
2018-08-16T08:19:53.660Z,35.62
2018-08-16T08:22:23.985Z,36.18
2018-08-16T08:24:52.890Z,36.33
2018-08-16T08:27:21.498Z,36.76
2018-08-16T08:29:50.096Z,37.16
2018-08-16T08:32:19.732Z,36.95
2018-08-16T08:34:48.959Z,37.16
2018-08-16T08:38:28.484Z,37.22
2018-08-16T08:40:57.559Z,36.62
2018-08-16T08:43:37.719Z,37.78
2018-08-16T08:46:06.771Z,36.78
2018-08-16T08:48:35.669Z,37.57
2018-08-16T08:51:04.369Z,38.04
2018-08-16T08:54:52.528Z,38.74
2018-08-16T08:57:32.983Z,38.55
2018-08-16T09:00:02.213Z,37.83
2018-08-16T09:02:30.950Z,39.19
2018-08-16T09:05:00.198Z,39.74
2018-08-16T09:07:29.205Z,40.65
2018-08-16T09:11:12.297Z,41.26
2018-08-16T09:13:53.310Z,41.53
2018-08-16T09:16:30.636Z,42.28
2018-08-16T09:18:59.664Z,42.70
2018-08-16T09:21:29.274Z,42.87
2018-08-16T09:23:58.397Z,41.97
2018-08-16T09:26:32.258Z,42.17
2018-08-16T09:29:00.955Z,43.65
2018-08-16T09:32:37.959Z,43.19
2018-08-16T09:35:06.655Z,43.29
2018-08-16T09:37:37.215Z,43.27
2018-08-16T09:40:06.923Z,43.65
2018-08-16T09:42:35.514Z,44.28
2018-08-16T09:45:16.055Z,44.64
2018-08-16T09:47:55.854Z,43.59
2018-08-16T09:50:25.046Z,44.40
2018-08-16T09:52:53.896Z,45.27
2018-08-16T09:55:22.530Z,45.23
2018-08-16T09:57:51.755Z,46.04
2018-08-16T10:00:25.013Z,46.74
2018-08-16T10:02:54.129Z,47.28
2018-08-16T10:05:23.305Z,47.04
2018-08-16T10:07:52.914Z,45.54
2018-08-16T10:10:21.601Z,44.06
2018-08-16T10:12:50.946Z,45.09
2018-08-16T10:15:20.497Z,45.14
2018-08-16T10:17:50.321Z,46.97
2018-08-16T10:20:19.198Z,47.95
2018-08-16T10:22:48.174Z,47.26
2018-08-16T10:25:17.031Z,48.59
2018-08-16T10:27:45.704Z,48.07
2018-08-16T10:30:14.470Z,47.87
2018-08-16T10:32:43.419Z,47.34
2018-08-16T10:35:12.964Z,48.52
2018-08-16T10:37:41.951Z,47.78
2018-08-16T10:40:11.606Z,48.28
2018-08-16T10:42:40.583Z,48.34
2018-08-16T10:45:09.939Z,46.42
2018-08-16T10:47:41.133Z,46.24
2018-08-16T10:50:10.214Z,48.03
2018-08-16T10:52:38.875Z,48.27
2018-08-16T10:55:07.693Z,47.50
2018-08-16T10:57:36.562Z,47.05
2018-08-16T11:00:06.811Z,47.68
2018-08-16T11:02:35.385Z,47.38
2018-08-16T11:05:13.359Z,47.18
2018-08-16T11:07:42.188Z,47.99
2018-08-16T11:10:11.272Z,48.74
2018-08-16T11:12:40.085Z,49.83
2018-08-16T11:15:09.301Z,49.08
2018-08-16T11:17:38.725Z,50.24
2018-08-16T11:20:07.374Z,50.21
2018-08-16T11:22:36.572Z,50.31
2018-08-16T11:25:06.022Z,49.29
2018-08-16T11:27:34.764Z,49.35
2018-08-16T11:30:03.515Z,49.04
2018-08-16T11:32:32.779Z,49.56
2018-08-16T11:35:01.999Z,49.90
2018-08-16T11:37:31.400Z,50.16
2018-08-16T11:40:00.832Z,50.08
2018-08-16T11:42:30.449Z,50.26
2018-08-16T11:45:00.589Z,49.12
2018-08-16T11:47:29.900Z,50.67
2018-08-16T11:49:59.859Z,49.41
2018-08-16T11:52:30.244Z,47.55
2018-08-16T11:54:59.749Z,48.09
2018-08-16T11:57:35.765Z,48.24
2018-08-16T12:00:05.065Z,47.81
2018-08-16T12:02:35.276Z,47.76
2018-08-16T12:05:04.156Z,47.96
2018-08-16T12:07:33.681Z,49.22
2018-08-16T12:10:02.923Z,50.51
2018-08-16T12:12:31.657Z,50.32
2018-08-16T12:15:00.349Z,51.64
2018-08-16T12:17:28.991Z,50.57
2018-08-16T12:19:57.827Z,50.86
2018-08-16T12:22:26.475Z,50.95
2018-08-16T12:24:55.282Z,51.33
2018-08-16T12:27:24.321Z,50.44
2018-08-16T12:29:53.110Z,49.83
2018-08-16T12:32:22.962Z,50.09
2018-08-16T12:34:52.231Z,48.38
2018-08-16T12:37:21.226Z,48.61
2018-08-16T12:39:49.782Z,48.79
2018-08-16T12:42:18.983Z,48.97
2018-08-16T12:44:47.728Z,49.60
2018-08-16T12:47:16.774Z,49.75
2018-08-16T12:49:46.597Z,48.02
2018-08-16T12:52:15.616Z,47.59
2018-08-16T12:54:45.271Z,47.84
2018-08-16T12:57:14.391Z,47.55
2018-08-16T12:59:43.805Z,47.52
2018-08-16T13:02:12.603Z,47.89
2018-08-16T13:04:41.894Z,47.36
2018-08-16T13:07:11.363Z,48.03
2018-08-16T13:09:41.029Z,47.97
2018-08-16T13:12:09.667Z,47.80
2018-08-16T13:14:38.195Z,48.56
2018-08-16T13:17:07.031Z,48.92
2018-08-16T13:19:36.106Z,49.97
2018-08-16T13:22:05.440Z,47.92
2018-08-16T13:24:34.178Z,47.76
2018-08-16T13:27:02.939Z,47.56
2018-08-16T13:29:32.557Z,47.80
2018-08-16T13:32:01.315Z,46.89
2018-08-16T13:34:31.746Z,47.42
2018-08-16T13:37:00.546Z,47.54
2018-08-16T13:39:29.974Z,47.17
2018-08-16T13:41:59.439Z,47.33
2018-08-16T13:44:28.517Z,47.11
2018-08-16T13:46:57.886Z,47.20
2018-08-16T13:49:28.203Z,45.55
2018-08-16T13:51:58.068Z,45.02
2018-08-16T13:54:27.210Z,45.11
2018-08-16T13:56:56.621Z,45.39
2018-08-16T13:59:25.776Z,44.57
2018-08-16T14:01:54.591Z,43.72
2018-08-16T14:04:23.391Z,43.60
2018-08-16T14:06:52.629Z,43.09
2018-08-16T14:09:21.642Z,42.77
2018-08-16T14:11:51.255Z,42.49
2018-08-16T14:14:20.067Z,41.85
2018-08-16T14:16:48.855Z,40.70
2018-08-16T14:19:17.624Z,39.18
2018-08-16T14:21:46.192Z,39.17
2018-08-16T14:24:15.008Z,38.33
2018-08-16T14:26:44.467Z,38.06
2018-08-16T14:29:13.111Z,38.09
2018-08-16T14:31:41.782Z,37.77
2018-08-16T14:34:10.652Z,37.15
2018-08-16T14:36:40.158Z,36.55
2018-08-16T14:39:12.441Z,36.29
2018-08-16T14:41:42.233Z,36.14
2018-08-16T14:44:11.811Z,35.84
2018-08-16T14:46:40.553Z,35.61
2018-08-16T14:49:09.298Z,34.92
2018-08-16T14:51:38.580Z,34.82
2018-08-16T14:54:07.787Z,34.63
2018-08-16T14:56:36.696Z,34.66
2018-08-16T14:59:06.169Z,34.39
2018-08-16T15:01:35.291Z,34.60
2018-08-16T15:04:04.121Z,34.55
2018-08-16T15:06:32.731Z,34.13
2018-08-16T15:09:02.091Z,33.87
2018-08-16T15:11:30.791Z,33.78
2018-08-16T15:14:00.470Z,33.47
2018-08-16T15:16:29.481Z,33.63
2018-08-16T15:19:00.065Z,33.54
2018-08-16T15:21:29.075Z,33.52
2018-08-16T15:23:58.005Z,33.14
2018-08-16T15:26:26.705Z,32.94
2018-08-16T15:28:55.951Z,33.22
2018-08-16T15:31:24.666Z,33.25
2018-08-16T15:33:54.192Z,33.22
2018-08-16T15:36:23.132Z,33.26
2018-08-16T15:38:52.146Z,33.07
2018-08-16T15:41:20.863Z,32.92
2018-08-16T15:43:49.796Z,33.05
2018-08-16T15:46:18.499Z,33.10
2018-08-16T15:48:47.798Z,33.05
2018-08-16T15:51:16.557Z,32.95
2018-08-16T15:53:45.370Z,32.81
2018-08-16T15:56:15.239Z,32.71
2018-08-16T15:58:44.412Z,32.60
2018-08-16T16:01:13.170Z,32.60
2018-08-16T16:03:42.826Z,32.49
2018-08-16T16:06:11.739Z,32.37
2018-08-16T16:08:40.414Z,32.05
2018-08-16T16:11:09.892Z,31.85
2018-08-16T16:13:38.554Z,31.76
2018-08-16T16:16:07.394Z,31.59
2018-08-16T16:18:36.376Z,31.61
2018-08-16T16:21:06.596Z,31.52
2018-08-16T16:23:35.332Z,31.42
2018-08-16T16:26:04.013Z,31.33
2018-08-16T16:28:33.243Z,31.31
2018-08-16T16:31:02.392Z,31.23
2018-08-16T16:33:31.602Z,31.15
2018-08-16T16:36:00.964Z,30.99
2018-08-16T16:38:29.707Z,30.84
2018-08-16T16:40:58.433Z,30.83
2018-08-16T16:43:27.522Z,30.66
2018-08-16T16:45:56.955Z,30.69
2018-08-16T16:48:25.606Z,30.58
2018-08-16T16:50:54.172Z,30.48
2018-08-16T16:53:23.560Z,30.47
2018-08-16T16:55:52.350Z,30.33
2018-08-16T16:58:21.031Z,30.27
2018-08-16T17:00:49.897Z,30.27
2018-08-16T17:03:18.695Z,30.24
2018-08-16T17:05:47.621Z,30.16
2018-08-16T17:08:16.480Z,30.08
2018-08-16T17:10:46.747Z,29.96
2018-08-16T17:13:15.502Z,29.84
2018-08-16T17:15:44.798Z,29.68
2018-08-16T17:18:13.761Z,29.66
2018-08-16T17:20:42.514Z,29.56
2018-08-16T17:23:11.223Z,29.53
2018-08-16T17:25:40.246Z,29.49
2018-08-16T17:28:08.799Z,29.43
2018-08-16T17:30:37.582Z,29.38
2018-08-16T17:33:06.409Z,29.26
2018-08-16T17:35:35.286Z,29.10
2018-08-16T17:38:05.858Z,28.97
2018-08-16T17:40:34.822Z,28.88
2018-08-16T17:43:04.084Z,28.62
2018-08-16T17:45:33.169Z,28.51
2018-08-16T17:48:01.924Z,28.36
2018-08-16T17:50:31.652Z,28.13
2018-08-16T17:53:01.078Z,28.04
2018-08-16T17:55:30.245Z,27.94
2018-08-16T17:57:59.407Z,27.77
2018-08-16T18:00:28.483Z,27.69
2018-08-16T18:02:57.679Z,27.58
2018-08-16T18:05:26.506Z,27.44
2018-08-16T18:07:55.246Z,27.31
2018-08-16T18:10:24.198Z,27.15
2018-08-16T18:12:53.806Z,26.90
2018-08-16T18:15:23.047Z,26.73
2018-08-16T18:17:52.138Z,26.52
2018-08-16T18:20:20.769Z,26.39
2018-08-16T18:22:49.679Z,26.37
2018-08-16T18:25:18.763Z,26.25
2018-08-16T18:27:48.786Z,26.12
2018-08-16T18:30:18.483Z,25.85
2018-08-16T18:32:47.612Z,25.80
2018-08-16T18:35:17.303Z,25.71
2018-08-16T18:37:47.832Z,25.52
2018-08-16T18:40:16.649Z,25.40
2018-08-16T18:42:46.506Z,25.18
2018-08-16T18:45:15.517Z,25.09
2018-08-16T18:47:44.349Z,24.98
2018-08-16T18:50:14.697Z,24.76
2018-08-16T18:52:43.434Z,24.69
2018-08-16T18:55:12.423Z,24.52
2018-08-16T18:57:42.253Z,24.30
2018-08-16T19:00:11.567Z,24.16
2018-08-16T19:02:40.180Z,24.15
2018-08-16T19:05:09.663Z,23.98
2018-08-16T19:07:38.484Z,23.91
2018-08-16T19:10:08.328Z,23.81
2018-08-16T19:12:37.217Z,23.67
2018-08-16T19:15:06.284Z,23.45
2018-08-16T19:17:35.104Z,23.38
2018-08-16T19:20:06.656Z,23.31
2018-08-16T19:22:36.272Z,23.14
2018-08-16T19:25:07.273Z,23.10
2018-08-16T19:27:37.498Z,22.97
2018-08-16T19:30:07.254Z,22.84
2018-08-16T19:32:36.964Z,22.71
2018-08-16T19:35:06.270Z,22.68
2018-08-16T19:37:36.013Z,22.56
2018-08-16T19:40:07.307Z,22.39
2018-08-16T19:42:36.632Z,22.30
2018-08-16T19:45:06.778Z,22.21
2018-08-16T19:47:36.033Z,22.05
2018-08-16T19:50:05.776Z,21.98
2018-08-16T19:52:35.528Z,21.90
2018-08-16T19:55:05.083Z,21.85
2018-08-16T19:57:35.728Z,21.72
2018-08-16T20:00:06.108Z,21.62
2018-08-16T20:02:35.058Z,21.58
2018-08-16T20:05:04.564Z,21.49
2018-08-16T20:07:33.428Z,21.42
2018-08-16T20:10:02.394Z,21.29
2018-08-16T20:12:32.298Z,21.24
2018-08-16T20:15:01.738Z,21.07
2018-08-16T20:17:32.489Z,21.01
2018-08-16T20:20:01.969Z,20.96
2018-08-16T20:22:31.073Z,20.79
2018-08-16T20:25:00.332Z,20.73
2018-08-16T20:27:29.492Z,20.76
2018-08-16T20:29:58.550Z,20.70
2018-08-16T20:35:59.544Z,20.35
2018-08-16T20:38:28.971Z,20.31
2018-08-16T20:40:58.853Z,20.21
2018-08-16T20:43:28.009Z,20.11
2018-08-16T20:45:57.666Z,20.11
2018-08-16T20:48:26.784Z,20.05
2018-08-16T20:50:56.064Z,19.93
2018-08-16T20:53:25.473Z,19.88
2018-08-16T20:55:55.237Z,19.90
2018-08-16T20:58:24.182Z,19.74
2018-08-16T21:00:53.205Z,19.66
2018-08-16T21:03:21.923Z,19.66
2018-08-16T21:05:51.431Z,19.63
2018-08-16T21:08:20.972Z,19.55
2018-08-16T21:10:50.563Z,19.49
2018-08-16T21:13:20.538Z,19.48
2018-08-16T21:15:49.711Z,19.24
2018-08-16T21:18:20.407Z,19.24
2018-08-16T21:20:50.270Z,19.27
2018-08-16T21:23:19.656Z,19.01
2018-08-16T21:25:48.523Z,18.98
2018-08-16T21:28:17.208Z,19.06
2018-08-16T21:30:47.718Z,19.01
2018-08-16T21:33:16.400Z,18.96
2018-08-16T21:35:45.468Z,18.96
2018-08-16T21:38:14.065Z,18.85
2018-08-16T21:40:43.035Z,18.81
2018-08-16T21:43:13.259Z,18.70
2018-08-16T21:45:42.107Z,18.67
2018-08-16T21:48:10.878Z,18.55
2018-08-16T21:50:39.793Z,18.52
2018-08-16T21:53:09.184Z,18.39
2018-08-16T21:55:38.387Z,18.37
2018-08-16T21:58:07.246Z,18.34
2018-08-16T22:00:53.510Z,18.32
2018-08-16T22:03:23.664Z,18.28
2018-08-16T22:06:09.969Z,18.21
2018-08-16T22:08:52.189Z,18.15
2018-08-16T22:11:22.096Z,18.12
2018-08-16T22:13:50.943Z,18.09
2018-08-16T22:16:19.923Z,18.06
2018-08-16T22:18:49.138Z,17.95
2018-08-16T22:21:18.498Z,17.93
2018-08-16T22:23:47.187Z,17.81
2018-08-16T22:26:17.000Z,17.76
2018-08-16T22:28:46.115Z,17.80
2018-08-16T22:31:15.203Z,17.75
2018-08-16T22:33:44.454Z,17.64
2018-08-16T22:36:13.884Z,17.50
2018-08-16T22:38:42.615Z,17.58
2018-08-16T22:41:11.490Z,17.56
2018-08-16T22:43:40.259Z,17.50
2018-08-16T22:46:08.923Z,17.40
2018-08-16T22:48:37.880Z,17.34
2018-08-16T22:51:07.154Z,17.34
2018-08-16T22:53:35.893Z,17.22
2018-08-16T22:56:04.635Z,17.21
2018-08-16T22:58:33.965Z,17.18
2018-08-16T23:01:02.966Z,17.19
2018-08-16T23:03:32.223Z,17.15
2018-08-16T23:06:01.080Z,17.15
2018-08-16T23:08:29.882Z,17.10
2018-08-16T23:10:58.783Z,17.13
2018-08-16T23:13:27.444Z,17.10
2018-08-16T23:15:56.275Z,17.06
2018-08-16T23:18:26.539Z,16.98
2018-08-16T23:20:55.334Z,16.99
2018-08-16T23:23:24.018Z,16.95
2018-08-16T23:25:52.668Z,16.91
2018-08-16T23:28:21.423Z,16.85
2018-08-16T23:30:50.457Z,16.71
2018-08-16T23:33:19.109Z,16.70
2018-08-16T23:35:48.049Z,16.70
2018-08-16T23:38:16.913Z,16.52
2018-08-16T23:40:45.702Z,16.58
2018-08-16T23:43:15.445Z,16.58
2018-08-16T23:45:44.152Z,16.59
2018-08-16T23:48:26.949Z,16.50
2018-08-16T23:50:55.775Z,16.48
2018-08-16T23:53:25.464Z,16.48
2018-08-16T23:55:55.481Z,16.44
2018-08-16T23:58:24.899Z,16.36
